sensor_id;sensor_type;location;lat;lon;timestamp;pressure;altitude;pressure_sealevel;temperature;humidity
21401;BME280;18038;50.166;18.908;2022-11-20T20:22:28;97216.59;;;1.00;74.48
21401;BME280;18038;50.166;18.908;2022-11-20T20:24:39;97213.69;;;1.03;74.67
21401;BME280;18038;50.166;18.908;2022-11-20T20:26:45;97207.53;;;0.94;75.10
21401;BME280;18038;50.166;18.908;2022-11-20T20:28:57;97211.81;;;0.95;74.93
21401;BME280;18038;50.166;18.908;2022-11-20T20:31:06;97208.81;;;0.90;75.24
21401;BME280;18038;50.166;18.908;2022-11-20T20:33:13;97208.09;;;0.88;75.75
21401;BME280;18038;50.166;18.908;2022-11-20T20:35:23;97206.56;;;0.95;75.45
21401;BME280;18038;50.166;18.908;2022-11-20T20:44:15;97199.19;;;1.08;75.24
21401;BME280;18038;50.166;18.908;2022-11-20T20:46:56;97205.41;;;1.07;75.57
21401;BME280;18038;50.166;18.908;2022-11-20T20:49:03;97199.38;;;0.97;75.97
21401;BME280;18038;50.166;18.908;2022-11-20T20:51:10;97194.69;;;1.01;75.94
21401;BME280;18038;50.166;18.908;2022-11-20T20:53:16;97202.88;;;1.16;75.43
21401;BME280;18038;50.166;18.908;2022-11-20T20:55:25;97199.28;;;1.17;75.32
21401;BME280;18038;50.166;18.908;2022-11-20T20:57:35;97191.25;;;1.18;75.21
21401;BME280;18038;50.166;18.908;2022-11-20T20:59:44;97194.44;;;1.22;75.30
21401;BME280;18038;50.166;18.908;2022-11-20T21:01:51;97206.38;;;1.34;74.99
21401;BME280;18038;50.166;18.908;2022-11-20T21:04:01;97208.69;;;1.37;74.50
21401;BME280;18038;50.166;18.908;2022-11-20T21:06:08;97215.19;;;1.43;74.61
21401;BME280;18038;50.166;18.908;2022-11-20T21:08:17;97220.13;;;1.46;74.58
21401;BME280;18038;50.166;18.908;2022-11-20T21:10:26;97224.28;;;1.48;74.28
21401;BME280;18038;50.166;18.908;2022-11-20T21:12:32;97218.56;;;1.53;74.24
21401;BME280;18038;50.166;18.908;2022-11-20T21:14:41;97223.06;;;1.61;74.12
21401;BME280;18038;50.166;18.908;2022-11-20T21:16:49;97221.66;;;1.66;74.10
21401;BME280;18038;50.166;18.908;2022-11-20T21:18:55;97221.22;;;1.71;73.98
21401;BME280;18038;50.166;18.908;2022-11-20T21:21:14;97216.19;;;1.60;73.95
21401;BME280;18038;50.166;18.908;2022-11-20T21:23:34;97219.03;;;1.48;74.62
21401;BME280;18038;50.166;18.908;2022-11-20T21:25:41;97214.13;;;1.36;74.98
21401;BME280;18038;50.166;18.908;2022-11-20T21:27:48;97215.63;;;1.38;74.93
21401;BME280;18038;50.166;18.908;2022-11-20T21:29:57;97217.16;;;1.31;75.42
21401;BME280;18038;50.166;18.908;2022-11-20T21:32:11;97214.97;;;1.26;75.65
21401;BME280;18038;50.166;18.908;2022-11-20T21:34:18;97211.78;;;1.32;75.89
21401;BME280;18038;50.166;18.908;2022-11-20T21:36:30;97216.94;;;1.24;75.65
21401;BME280;18038;50.166;18.908;2022-11-20T21:38:36;97207.69;;;1.20;75.95
21401;BME280;18038;50.166;18.908;2022-11-20T21:40:42;97222.22;;;1.15;76.27
21401;BME280;18038;50.166;18.908;2022-11-20T21:42:48;97218.38;;;1.09;76.50
21401;BME280;18038;50.166;18.908;2022-11-20T21:44:58;97226.94;;;1.11;76.38
21401;BME280;18038;50.166;18.908;2022-11-20T21:47:06;97230.81;;;1.07;76.64
21401;BME280;18038;50.166;18.908;2022-11-20T21:49:12;97236.06;;;1.07;76.71
21401;BME280;18038;50.166;18.908;2022-11-20T21:51:21;97238.28;;;1.02;76.81
21401;BME280;18038;50.166;18.908;2022-11-20T21:53:35;97233.03;;;1.02;76.97
21401;BME280;18038;50.166;18.908;2022-11-20T21:55:42;97227.69;;;0.94;77.15
21401;BME280;18038;50.166;18.908;2022-11-20T21:57:50;97230.03;;;0.97;77.29
21401;BME280;18038;50.166;18.908;2022-11-20T21:59:59;97227.38;;;1.06;77.07
21401;BME280;18038;50.166;18.908;2022-11-20T22:02:11;97221.44;;;1.04;76.80
21401;BME280;18038;50.166;18.908;2022-11-20T22:04:17;97227.28;;;0.88;77.57
21401;BME280;18038;50.166;18.908;2022-11-20T22:06:29;97231.41;;;1.01;77.29
21401;BME280;18038;50.166;18.908;2022-11-20T22:08:37;97228.94;;;0.89;77.60
21401;BME280;18038;50.166;18.908;2022-11-20T22:10:55;97230.31;;;0.84;78.09
21401;BME280;18038;50.166;18.908;2022-11-20T22:13:03;97219.28;;;0.90;77.68
21401;BME280;18038;50.166;18.908;2022-11-20T22:15:24;97232.53;;;0.88;77.64
21401;BME280;18038;50.166;18.908;2022-11-20T22:17:49;97233.94;;;0.73;78.00
21401;BME280;18038;50.166;18.908;2022-11-20T22:20:09;97236.44;;;0.75;78.09
21401;BME280;18038;50.166;18.908;2022-11-20T22:22:15;97235.34;;;0.67;78.34
21401;BME280;18038;50.166;18.908;2022-11-20T22:24:22;97245.13;;;0.85;77.89
21401;BME280;18038;50.166;18.908;2022-11-20T22:26:31;97241.94;;;0.81;77.67
21401;BME280;18038;50.166;18.908;2022-11-20T22:28:45;97238.69;;;0.60;78.27
21401;BME280;18038;50.166;18.908;2022-11-20T22:30:56;97234.81;;;0.54;78.62
21401;BME280;18038;50.166;18.908;2022-11-20T22:33:10;97231.50;;;0.72;78.09
21401;BME280;18038;50.166;18.908;2022-11-20T22:35:19;97226.78;;;0.75;77.70
21401;BME280;18038;50.166;18.908;2022-11-20T22:37:30;97229.28;;;0.77;77.43
21401;BME280;18038;50.166;18.908;2022-11-20T22:39:37;97241.13;;;0.71;77.67
21401;BME280;18038;50.166;18.908;2022-11-20T22:41:43;97237.03;;;0.68;77.77
21401;BME280;18038;50.166;18.908;2022-11-20T22:43:52;97237.69;;;0.71;77.47
21401;BME280;18038;50.166;18.908;2022-11-20T22:46:08;97238.44;;;0.53;77.77
21401;BME280;18038;50.166;18.908;2022-11-20T22:48:15;97243.38;;;0.46;78.03
21401;BME280;18038;50.166;18.908;2022-11-20T22:50:21;97240.34;;;0.61;77.81
21401;BME280;18038;50.166;18.908;2022-11-20T22:52:28;97241.84;;;0.63;77.73
21401;BME280;18038;50.166;18.908;2022-11-20T22:54:34;97251.06;;;0.67;77.73
21401;BME280;18038;50.166;18.908;2022-11-20T22:56:40;97256.72;;;0.73;77.20
21401;BME280;18038;50.166;18.908;2022-11-20T22:58:49;97252.19;;;0.55;77.81
21401;BME280;18038;50.166;18.908;2022-11-20T23:01:08;97254.44;;;0.50;78.00
21401;BME280;18038;50.166;18.908;2022-11-20T23:03:18;97254.03;;;0.45;78.03
21401;BME280;18038;50.166;18.908;2022-11-20T23:05:25;97251.81;;;0.31;78.79
21401;BME280;18038;50.166;18.908;2022-11-20T23:07:31;97260.38;;;0.13;79.58
21401;BME280;18038;50.166;18.908;2022-11-20T23:09:45;97251.13;;;0.09;79.71
21401;BME280;18038;50.166;18.908;2022-11-20T23:11:52;97244.13;;;-0.00;79.99
21401;BME280;18038;50.166;18.908;2022-11-20T23:14:00;97242.16;;;0.02;79.69
21401;BME280;18038;50.166;18.908;2022-11-20T23:16:12;97242.88;;;0.14;79.31
21401;BME280;18038;50.166;18.908;2022-11-20T23:18:28;97247.53;;;0.10;78.92
21401;BME280;18038;50.166;18.908;2022-11-20T23:20:35;97239.84;;;0.09;79.08
21401;BME280;18038;50.166;18.908;2022-11-20T23:22:42;97248.66;;;0.08;78.82
21401;BME280;18038;50.166;18.908;2022-11-20T23:24:48;97247.28;;;0.04;79.20
21401;BME280;18038;50.166;18.908;2022-11-20T23:26:54;97248.09;;;-0.06;79.68
21401;BME280;18038;50.166;18.908;2022-11-20T23:29:00;97255.41;;;-0.09;79.81
21401;BME280;18038;50.166;18.908;2022-11-20T23:31:12;97249.75;;;-0.14;80.24
21401;BME280;18038;50.166;18.908;2022-11-20T23:33:18;97248.91;;;-0.25;80.58
21401;BME280;18038;50.166;18.908;2022-11-20T23:35:24;97253.28;;;-0.35;80.86
21401;BME280;18038;50.166;18.908;2022-11-20T23:37:30;97253.69;;;-0.49;81.74
21401;BME280;18038;50.166;18.908;2022-11-20T23:39:37;97251.59;;;-0.55;81.57
21401;BME280;18038;50.166;18.908;2022-11-20T23:41:43;97242.91;;;-0.66;82.00
21401;BME280;18038;50.166;18.908;2022-11-20T23:43:49;97235.31;;;-0.59;81.98
21401;BME280;18038;50.166;18.908;2022-11-20T23:45:58;97235.09;;;-0.46;81.35
21401;BME280;18038;50.166;18.908;2022-11-20T23:48:10;97227.09;;;-0.35;81.21
21401;BME280;18038;50.166;18.908;2022-11-20T23:50:17;97227.41;;;-0.28;80.74
21401;BME280;18038;50.166;18.908;2022-11-20T23:52:23;97227.28;;;-0.27;80.31
21401;BME280;18038;50.166;18.908;2022-11-20T23:54:29;97232.25;;;-0.24;79.95
21401;BME280;18038;50.166;18.908;2022-11-20T23:56:35;97229.63;;;-0.24;80.34
21401;BME280;18038;50.166;18.908;2022-11-20T23:58:42;97229.78;;;-0.15;79.83
